sensor_id;sensor_type;location;lat;lon;timestamp;P1;durP1;ratioP1;P2;durP2;ratioP2
79562;SDS011;69026;50.980;11.314;2023-04-16T00:01:56;6.00;;;3.53;;
79562;SDS011;69026;50.980;11.314;2023-04-16T00:04:22;5.10;;;3.40;;
79562;SDS011;69026;50.980;11.314;2023-04-16T00:06:48;5.90;;;3.38;;
79562;SDS011;69026;50.980;11.314;2023-04-16T00:09:14;6.40;;;2.90;;
79562;SDS011;69026;50.980;11.314;2023-04-16T00:11:40;4.85;;;2.60;;
79562;SDS011;69026;50.980;11.314;2023-04-16T00:14:06;4.63;;;2.67;;
79562;SDS011;69026;50.980;11.314;2023-04-16T00:16:32;3.65;;;2.08;;
79562;SDS011;69026;50.980;11.314;2023-04-16T00:18:57;4.03;;;2.53;;
79562;SDS011;69026;50.980;11.314;2023-04-16T00:21:23;5.03;;;2.88;;
79562;SDS011;69026;50.980;11.314;2023-04-16T00:23:49;5.53;;;3.13;;
79562;SDS011;69026;50.980;11.314;2023-04-16T00:26:15;6.35;;;3.72;;
79562;SDS011;69026;50.980;11.314;2023-04-16T00:28:43;4.63;;;2.50;;
79562;SDS011;69026;50.980;11.314;2023-04-16T00:31:09;4.78;;;2.67;;
79562;SDS011;69026;50.980;11.314;2023-04-16T00:33:35;6.45;;;3.85;;
79562;SDS011;69026;50.980;11.314;2023-04-16T00:36:00;3.97;;;2.70;;
79562;SDS011;69026;50.980;11.314;2023-04-16T00:38:26;5.65;;;3.30;;
79562;SDS011;69026;50.980;11.314;2023-04-16T00:40:55;5.10;;;3.00;;
79562;SDS011;69026;50.980;11.314;2023-04-16T00:45:51;5.28;;;3.30;;
79562;SDS011;69026;50.980;11.314;2023-04-16T00:48:19;5.38;;;2.97;;
79562;SDS011;69026;50.980;11.314;2023-04-16T00:50:45;4.57;;;2.83;;
79562;SDS011;69026;50.980;11.314;2023-04-16T00:53:11;4.70;;;2.85;;
79562;SDS011;69026;50.980;11.314;2023-04-16T00:55:38;4.15;;;2.90;;
79562;SDS011;69026;50.980;11.314;2023-04-16T00:58:04;4.22;;;2.63;;
79562;SDS011;69026;50.980;11.314;2023-04-16T01:00:30;4.28;;;1.95;;
79562;SDS011;69026;50.980;11.314;2023-04-16T01:02:55;3.10;;;1.77;;
79562;SDS011;69026;50.980;11.314;2023-04-16T01:05:22;2.60;;;1.50;;
79562;SDS011;69026;50.980;11.314;2023-04-16T01:07:48;3.53;;;1.90;;
79562;SDS011;69026;50.980;11.314;2023-04-16T01:10:15;5.05;;;2.55;;
79562;SDS011;69026;50.980;11.314;2023-04-16T01:12:41;4.78;;;2.40;;
79562;SDS011;69026;50.980;11.314;2023-04-16T01:15:07;3.80;;;2.55;;
79562;SDS011;69026;50.980;11.314;2023-04-16T01:17:33;4.75;;;2.67;;
79562;SDS011;69026;50.980;11.314;2023-04-16T01:19:59;4.47;;;2.92;;
79562;SDS011;69026;50.980;11.314;2023-04-16T01:22:26;3.58;;;2.30;;
79562;SDS011;69026;50.980;11.314;2023-04-16T01:24:52;4.38;;;2.20;;
79562;SDS011;69026;50.980;11.314;2023-04-16T01:27:18;3.50;;;2.33;;
79562;SDS011;69026;50.980;11.314;2023-04-16T01:29:44;3.80;;;2.35;;
79562;SDS011;69026;50.980;11.314;2023-04-16T01:32:10;5.10;;;2.97;;
79562;SDS011;69026;50.980;11.314;2023-04-16T01:34:39;4.00;;;2.60;;
79562;SDS011;69026;50.980;11.314;2023-04-16T01:37:05;4.25;;;2.60;;
79562;SDS011;69026;50.980;11.314;2023-04-16T01:39:31;3.70;;;2.30;;
79562;SDS011;69026;50.980;11.314;2023-04-16T01:41:57;3.92;;;2.47;;
79562;SDS011;69026;50.980;11.314;2023-04-16T01:44:23;7.20;;;3.17;;
79562;SDS011;69026;50.980;11.314;2023-04-16T01:46:49;4.28;;;2.47;;
79562;SDS011;69026;50.980;11.314;2023-04-16T01:49:15;4.85;;;2.80;;
79562;SDS011;69026;50.980;11.314;2023-04-16T01:51:41;4.22;;;2.10;;
79562;SDS011;69026;50.980;11.314;2023-04-16T01:54:07;4.28;;;2.80;;
79562;SDS011;69026;50.980;11.314;2023-04-16T01:56:33;2.88;;;1.80;;
79562;SDS011;69026;50.980;11.314;2023-04-16T01:58:59;2.50;;;1.67;;
79562;SDS011;69026;50.980;11.314;2023-04-16T02:01:31;2.05;;;1.70;;
79562;SDS011;69026;50.980;11.314;2023-04-16T02:03:57;4.30;;;2.15;;
79562;SDS011;69026;50.980;11.314;2023-04-16T02:06:22;4.15;;;2.25;;
79562;SDS011;69026;50.980;11.314;2023-04-16T02:08:48;3.53;;;2.10;;
79562;SDS011;69026;50.980;11.314;2023-04-16T02:11:14;2.50;;;1.42;;
79562;SDS011;69026;50.980;11.314;2023-04-16T02:13:41;3.85;;;2.40;;
79562;SDS011;69026;50.980;11.314;2023-04-16T02:16:07;4.20;;;2.22;;
79562;SDS011;69026;50.980;11.314;2023-04-16T02:18:47;5.00;;;3.03;;
79562;SDS011;69026;50.980;11.314;2023-04-16T02:21:15;4.18;;;2.30;;
79562;SDS011;69026;50.980;11.314;2023-04-16T02:23:41;4.60;;;2.70;;
79562;SDS011;69026;50.980;11.314;2023-04-16T02:26:10;3.40;;;2.08;;
79562;SDS011;69026;50.980;11.314;2023-04-16T02:28:38;3.25;;;2.15;;
79562;SDS011;69026;50.980;11.314;2023-04-16T02:31:04;4.50;;;2.60;;
79562;SDS011;69026;50.980;11.314;2023-04-16T02:33:37;5.00;;;2.80;;
79562;SDS011;69026;50.980;11.314;2023-04-16T02:36:03;5.30;;;2.70;;
79562;SDS011;69026;50.980;11.314;2023-04-16T02:38:29;2.90;;;1.92;;
79562;SDS011;69026;50.980;11.314;2023-04-16T02:40:55;3.35;;;2.15;;
79562;SDS011;69026;50.980;11.314;2023-04-16T02:43:21;3.30;;;2.00;;
79562;SDS011;69026;50.980;11.314;2023-04-16T02:45:46;2.75;;;1.90;;
79562;SDS011;69026;50.980;11.314;2023-04-16T02:48:12;2.75;;;1.80;;
79562;SDS011;69026;50.980;11.314;2023-04-16T02:50:38;2.35;;;1.58;;
79562;SDS011;69026;50.980;11.314;2023-04-16T02:53:04;2.05;;;1.40;;
79562;SDS011;69026;50.980;11.314;2023-04-16T02:55:31;2.33;;;1.60;;
79562;SDS011;69026;50.980;11.314;2023-04-16T02:57:56;3.55;;;1.75;;
79562;SDS011;69026;50.980;11.314;2023-04-16T03:00:22;3.67;;;2.13;;
79562;SDS011;69026;50.980;11.314;2023-04-16T03:02:48;3.40;;;2.05;;
79562;SDS011;69026;50.980;11.314;2023-04-16T03:05:14;3.85;;;2.20;;
79562;SDS011;69026;50.980;11.314;2023-04-16T03:07:39;3.50;;;2.15;;
79562;SDS011;69026;50.980;11.314;2023-04-16T03:10:06;4.15;;;2.53;;
79562;SDS011;69026;50.980;11.314;2023-04-16T03:12:32;3.65;;;2.30;;
79562;SDS011;69026;50.980;11.314;2023-04-16T03:14:57;3.28;;;2.38;;
79562;SDS011;69026;50.980;11.314;2023-04-16T03:17:23;3.80;;;2.45;;
79562;SDS011;69026;50.980;11.314;2023-04-16T03:19:49;3.80;;;2.42;;
79562;SDS011;69026;50.980;11.314;2023-04-16T03:22:15;4.65;;;2.97;;
79562;SDS011;69026;50.980;11.314;2023-04-16T03:24:41;4.57;;;2.55;;
79562;SDS011;69026;50.980;11.314;2023-04-16T03:27:07;3.65;;;2.42;;
79562;SDS011;69026;50.980;11.314;2023-04-16T03:29:35;4.15;;;2.40;;
79562;SDS011;69026;50.980;11.314;2023-04-16T03:34:27;3.90;;;2.35;;
79562;SDS011;69026;50.980;11.314;2023-04-16T03:36:53;3.60;;;2.65;;
79562;SDS011;69026;50.980;11.314;2023-04-16T03:39:19;3.53;;;1.95;;
79562;SDS011;69026;50.980;11.314;2023-04-16T03:41:45;2.30;;;1.40;;
79562;SDS011;69026;50.980;11.314;2023-04-16T03:44:11;3.28;;;2.55;;
79562;SDS011;69026;50.980;11.314;2023-04-16T03:46:37;3.97;;;2.10;;
79562;SDS011;69026;50.980;11.314;2023-04-16T03:49:03;3.25;;;1.88;;
79562;SDS011;69026;50.980;11.314;2023-04-16T03:51:28;2.75;;;2.05;;
79562;SDS011;69026;50.980;11.314;2023-04-16T03:53:55;3.70;;;2.80;;
79562;SDS011;69026;50.980;11.314;2023-04-16T03:56:22;2.80;;;1.73;;
79562;SDS011;69026;50.980;11.314;2023-04-16T03:58:50;3.63;;;2.17;;
79562;SDS011;69026;50.980;11.314;2023-04-16T04:01:17;3.05;;;2.13;;
79562;SDS011;69026;50.980;11.314;2023-04-16T04:03:43;4.50;;;2.45;;
79562;SDS011;69026;50.980;11.314;2023-04-16T04:06:09;3.50;;;2.20;;
79562;SDS011;69026;50.980;11.314;2023-04-16T04:08:35;3.50;;;2.45;;
79562;SDS011;69026;50.980;11.314;2023-04-16T04:11:02;3.28;;;2.30;;
79562;SDS011;69026;50.980;11.314;2023-04-16T04:13:29;4.25;;;2.30;;
79562;SDS011;69026;50.980;11.314;2023-04-16T04:15:56;3.42;;;1.88;;
79562;SDS011;69026;50.980;11.314;2023-04-16T04:18:22;3.80;;;2.25;;
79562;SDS011;69026;50.980;11.314;2023-04-16T04:20:48;3.60;;;2.45;;
79562;SDS011;69026;50.980;11.314;2023-04-16T04:23:16;3.67;;;2.20;;
79562;SDS011;69026;50.980;11.314;2023-04-16T04:25:43;2.45;;;1.75;;
79562;SDS011;69026;50.980;11.314;2023-04-16T04:28:09;3.15;;;1.80;;
79562;SDS011;69026;50.980;11.314;2023-04-16T04:30:35;3.42;;;2.67;;
79562;SDS011;69026;50.980;11.314;2023-04-16T04:33:01;3.78;;;2.03;;
79562;SDS011;69026;50.980;11.314;2023-04-16T04:35:27;2.63;;;1.80;;
79562;SDS011;69026;50.980;11.314;2023-04-16T04:37:52;2.90;;;1.90;;
79562;SDS011;69026;50.980;11.314;2023-04-16T04:40:19;3.58;;;2.38;;
79562;SDS011;69026;50.980;11.314;2023-04-16T04:42:45;2.83;;;1.75;;
79562;SDS011;69026;50.980;11.314;2023-04-16T04:45:11;3.00;;;1.63;;
79562;SDS011;69026;50.980;11.314;2023-04-16T04:47:37;3.47;;;1.92;;
79562;SDS011;69026;50.980;11.314;2023-04-16T04:50:03;4.32;;;2.83;;
79562;SDS011;69026;50.980;11.314;2023-04-16T04:52:31;3.67;;;2.30;;
79562;SDS011;69026;50.980;11.314;2023-04-16T04:54:57;3.00;;;1.90;;
79562;SDS011;69026;50.980;11.314;2023-04-16T04:57:23;3.55;;;2.65;;
79562;SDS011;69026;50.980;11.314;2023-04-16T04:59:52;4.07;;;2.20;;
79562;SDS011;69026;50.980;11.314;2023-04-16T05:02:18;3.50;;;2.60;;
79562;SDS011;69026;50.980;11.314;2023-04-16T05:04:43;3.00;;;2.10;;
79562;SDS011;69026;50.980;11.314;2023-04-16T05:07:09;4.20;;;2.33;;
79562;SDS011;69026;50.980;11.314;2023-04-16T05:09:35;4.32;;;2.67;;
79562;SDS011;69026;50.980;11.314;2023-04-16T05:12:01;4.93;;;2.42;;
79562;SDS011;69026;50.980;11.314;2023-04-16T05:14:27;3.20;;;2.30;;
79562;SDS011;69026;50.980;11.314;2023-04-16T05:16:52;2.35;;;1.50;;
79562;SDS011;69026;50.980;11.314;2023-04-16T05:19:18;2.83;;;1.77;;
79562;SDS011;69026;50.980;11.314;2023-04-16T05:21:44;3.20;;;2.22;;
79562;SDS011;69026;50.980;11.314;2023-04-16T05:24:10;2.78;;;2.00;;
79562;SDS011;69026;50.980;11.314;2023-04-16T05:26:36;3.17;;;2.00;;
79562;SDS011;69026;50.980;11.314;2023-04-16T05:29:02;2.70;;;1.38;;
79562;SDS011;69026;50.980;11.314;2023-04-16T05:31:27;2.88;;;1.90;;
79562;SDS011;69026;50.980;11.314;2023-04-16T05:33:53;3.15;;;2.00;;
79562;SDS011;69026;50.980;11.314;2023-04-16T05:36:19;2.90;;;2.00;;
79562;SDS011;69026;50.980;11.314;2023-04-16T05:38:45;2.58;;;1.60;;
79562;SDS011;69026;50.980;11.314;2023-04-16T05:41:10;3.80;;;2.40;;
79562;SDS011;69026;50.980;11.314;2023-04-16T05:43:36;4.30;;;2.63;;
79562;SDS011;69026;50.980;11.314;2023-04-16T05:46:02;3.80;;;2.50;;
79562;SDS011;69026;50.980;11.314;2023-04-16T05:48:28;2.92;;;2.33;;
79562;SDS011;69026;50.980;11.314;2023-04-16T05:50:53;2.40;;;2.00;;
79562;SDS011;69026;50.980;11.314;2023-04-16T05:53:19;2.70;;;2.00;;
79562;SDS011;69026;50.980;11.314;2023-04-16T05:55:45;3.88;;;2.22;;
79562;SDS011;69026;50.980;11.314;2023-04-16T05:58:11;3.90;;;2.35;;
79562;SDS011;69026;50.980;11.314;2023-04-16T06:00:37;3.40;;;2.35;;
79562;SDS011;69026;50.980;11.314;2023-04-16T06:03:03;3.38;;;2.58;;
79562;SDS011;69026;50.980;11.314;2023-04-16T06:05:29;3.30;;;2.20;;
79562;SDS011;69026;50.980;11.314;2023-04-16T06:07:55;2.40;;;1.65;;
79562;SDS011;69026;50.980;11.314;2023-04-16T06:10:21;3.42;;;2.30;;
79562;SDS011;69026;50.980;11.314;2023-04-16T06:12:47;2.65;;;1.40;;
79562;SDS011;69026;50.980;11.314;2023-04-16T06:15:13;4.47;;;2.65;;
79562;SDS011;69026;50.980;11.314;2023-04-16T06:17:39;2.35;;;1.67;;
79562;SDS011;69026;50.980;11.314;2023-04-16T06:20:04;2.17;;;1.52;;
79562;SDS011;69026;50.980;11.314;2023-04-16T06:22:31;2.83;;;2.00;;
79562;SDS011;69026;50.980;11.314;2023-04-16T06:24:56;3.00;;;2.00;;
79562;SDS011;69026;50.980;11.314;2023-04-16T06:27:22;2.80;;;1.90;;
79562;SDS011;69026;50.980;11.314;2023-04-16T06:29:48;1.98;;;1.45;;
79562;SDS011;69026;50.980;11.314;2023-04-16T06:32:14;3.03;;;1.95;;
79562;SDS011;69026;50.980;11.314;2023-04-16T06:34:41;3.05;;;2.33;;
79562;SDS011;69026;50.980;11.314;2023-04-16T06:37:07;4.47;;;3.03;;
79562;SDS011;69026;50.980;11.314;2023-04-16T06:39:33;4.88;;;3.20;;
79562;SDS011;69026;50.980;11.314;2023-04-16T06:41:58;2.92;;;2.00;;
79562;SDS011;69026;50.980;11.314;2023-04-16T06:44:24;3.35;;;2.03;;
79562;SDS011;69026;50.980;11.314;2023-04-16T06:46:50;4.03;;;2.80;;
79562;SDS011;69026;50.980;11.314;2023-04-16T06:49:16;3.60;;;2.45;;
79562;SDS011;69026;50.980;11.314;2023-04-16T06:51:41;3.55;;;2.33;;
79562;SDS011;69026;50.980;11.314;2023-04-16T06:54:07;3.00;;;2.22;;
79562;SDS011;69026;50.980;11.314;2023-04-16T06:56:33;3.22;;;2.30;;
79562;SDS011;69026;50.980;11.314;2023-04-16T06:59:00;2.40;;;1.70;;
79562;SDS011;69026;50.980;11.314;2023-04-16T07:01:26;3.13;;;2.50;;
79562;SDS011;69026;50.980;11.314;2023-04-16T07:03:53;2.55;;;1.70;;
79562;SDS011;69026;50.980;11.314;2023-04-16T07:06:18;2.30;;;1.60;;
79562;SDS011;69026;50.980;11.314;2023-04-16T07:08:44;2.58;;;1.60;;
79562;SDS011;69026;50.980;11.314;2023-04-16T07:11:10;2.13;;;1.40;;
79562;SDS011;69026;50.980;11.314;2023-04-16T07:13:36;2.83;;;1.83;;
79562;SDS011;69026;50.980;11.314;2023-04-16T07:16:02;1.90;;;1.40;;
79562;SDS011;69026;50.980;11.314;2023-04-16T07:18:27;3.85;;;1.85;;
79562;SDS011;69026;50.980;11.314;2023-04-16T07:20:53;2.20;;;1.80;;
79562;SDS011;69026;50.980;11.314;2023-04-16T07:23:19;2.75;;;1.88;;
79562;SDS011;69026;50.980;11.314;2023-04-16T07:25:45;3.92;;;2.30;;
79562;SDS011;69026;50.980;11.314;2023-04-16T07:28:11;4.18;;;2.75;;
79562;SDS011;69026;50.980;11.314;2023-04-16T07:30:37;3.33;;;2.05;;
79562;SDS011;69026;50.980;11.314;2023-04-16T07:33:03;3.78;;;2.80;;
79562;SDS011;69026;50.980;11.314;2023-04-16T07:35:29;3.97;;;2.85;;
79562;SDS011;69026;50.980;11.314;2023-04-16T07:37:55;4.25;;;2.53;;
79562;SDS011;69026;50.980;11.314;2023-04-16T07:40:22;3.53;;;2.40;;
79562;SDS011;69026;50.980;11.314;2023-04-16T07:42:49;3.45;;;2.08;;
79562;SDS011;69026;50.980;11.314;2023-04-16T07:45:15;3.47;;;2.33;;
79562;SDS011;69026;50.980;11.314;2023-04-16T07:47:42;3.30;;;2.28;;
79562;SDS011;69026;50.980;11.314;2023-04-16T07:50:08;3.70;;;2.50;;
79562;SDS011;69026;50.980;11.314;2023-04-16T07:52:34;3.08;;;2.28;;
79562;SDS011;69026;50.980;11.314;2023-04-16T07:54:59;2.40;;;2.00;;
79562;SDS011;69026;50.980;11.314;2023-04-16T07:57:25;2.65;;;1.70;;
79562;SDS011;69026;50.980;11.314;2023-04-16T07:59:51;3.13;;;1.77;;
79562;SDS011;69026;50.980;11.314;2023-04-16T08:02:17;2.65;;;1.70;;
79562;SDS011;69026;50.980;11.314;2023-04-16T08:04:43;2.50;;;1.30;;
79562;SDS011;69026;50.980;11.314;2023-04-16T08:07:08;2.42;;;1.83;;
79562;SDS011;69026;50.980;11.314;2023-04-16T08:09:35;4.15;;;2.92;;
79562;SDS011;69026;50.980;11.314;2023-04-16T08:12:01;3.30;;;2.40;;
79562;SDS011;69026;50.980;11.314;2023-04-16T08:14:27;4.10;;;2.80;;
79562;SDS011;69026;50.980;11.314;2023-04-16T08:16:53;4.63;;;2.97;;
79562;SDS011;69026;50.980;11.314;2023-04-16T08:19:19;2.78;;;2.22;;
79562;SDS011;69026;50.980;11.314;2023-04-16T08:21:45;3.97;;;2.10;;
79562;SDS011;69026;50.980;11.314;2023-04-16T08:24:11;2.55;;;1.95;;
79562;SDS011;69026;50.980;11.314;2023-04-16T08:26:37;2.80;;;2.05;;
79562;SDS011;69026;50.980;11.314;2023-04-16T08:29:03;3.65;;;2.25;;
79562;SDS011;69026;50.980;11.314;2023-04-16T08:31:29;3.15;;;1.83;;
79562;SDS011;69026;50.980;11.314;2023-04-16T08:33:55;3.03;;;1.95;;
79562;SDS011;69026;50.980;11.314;2023-04-16T08:36:21;3.45;;;2.10;;
79562;SDS011;69026;50.980;11.314;2023-04-16T08:38:46;3.65;;;2.00;;
79562;SDS011;69026;50.980;11.314;2023-04-16T08:41:12;3.95;;;2.13;;
79562;SDS011;69026;50.980;11.314;2023-04-16T08:43:41;3.85;;;2.33;;
79562;SDS011;69026;50.980;11.314;2023-04-16T08:46:10;5.25;;;2.30;;
79562;SDS011;69026;50.980;11.314;2023-04-16T08:48:37;2.47;;;1.80;;
79562;SDS011;69026;50.980;11.314;2023-04-16T08:51:03;3.63;;;2.72;;
79562;SDS011;69026;50.980;11.314;2023-04-16T08:53:40;4.40;;;2.38;;
79562;SDS011;69026;50.980;11.314;2023-04-16T08:56:12;10.57;;;2.75;;
79562;SDS011;69026;50.980;11.314;2023-04-16T08:58:40;5.03;;;2.83;;
79562;SDS011;69026;50.980;11.314;2023-04-16T09:01:07;4.93;;;1.77;;
79562;SDS011;69026;50.980;11.314;2023-04-16T09:03:34;7.93;;;3.60;;
79562;SDS011;69026;50.980;11.314;2023-04-16T09:06:01;8.73;;;3.10;;
79562;SDS011;69026;50.980;11.314;2023-04-16T09:08:29;5.25;;;2.78;;
79562;SDS011;69026;50.980;11.314;2023-04-16T09:10:55;6.60;;;2.78;;
79562;SDS011;69026;50.980;11.314;2023-04-16T09:13:21;6.80;;;2.63;;
79562;SDS011;69026;50.980;11.314;2023-04-16T09:15:52;8.27;;;3.97;;
79562;SDS011;69026;50.980;11.314;2023-04-16T09:18:19;5.45;;;3.10;;
79562;SDS011;69026;50.980;11.314;2023-04-16T09:20:46;6.22;;;3.03;;
79562;SDS011;69026;50.980;11.314;2023-04-16T09:23:13;4.68;;;2.75;;
79562;SDS011;69026;50.980;11.314;2023-04-16T09:25:38;8.02;;;2.97;;
79562;SDS011;69026;50.980;11.314;2023-04-16T09:28:05;6.07;;;3.20;;
79562;SDS011;69026;50.980;11.314;2023-04-16T09:30:30;7.03;;;2.90;;
79562;SDS011;69026;50.980;11.314;2023-04-16T09:33:11;4.57;;;2.88;;
79562;SDS011;69026;50.980;11.314;2023-04-16T09:35:50;5.65;;;2.72;;
79562;SDS011;69026;50.980;11.314;2023-04-16T09:38:17;8.70;;;3.15;;
79562;SDS011;69026;50.980;11.314;2023-04-16T09:40:44;7.80;;;3.67;;
79562;SDS011;69026;50.980;11.314;2023-04-16T09:43:12;5.57;;;3.22;;
79562;SDS011;69026;50.980;11.314;2023-04-16T09:48:13;9.18;;;3.72;;
79562;SDS011;69026;50.980;11.314;2023-04-16T09:50:39;5.57;;;2.63;;
79562;SDS011;69026;50.980;11.314;2023-04-16T09:53:19;10.23;;;3.72;;
79562;SDS011;69026;50.980;11.314;2023-04-16T09:55:49;8.93;;;2.70;;
79562;SDS011;69026;50.980;11.314;2023-04-16T09:58:17;7.97;;;3.05;;
79562;SDS011;69026;50.980;11.314;2023-04-16T10:00:43;7.70;;;2.47;;
79562;SDS011;69026;50.980;11.314;2023-04-16T10:03:09;6.70;;;3.10;;
79562;SDS011;69026;50.980;11.314;2023-04-16T10:05:35;6.70;;;2.33;;
79562;SDS011;69026;50.980;11.314;2023-04-16T10:08:01;4.53;;;2.70;;
79562;SDS011;69026;50.980;11.314;2023-04-16T10:10:27;4.65;;;2.60;;
79562;SDS011;69026;50.980;11.314;2023-04-16T10:12:56;3.05;;;2.03;;
79562;SDS011;69026;50.980;11.314;2023-04-16T10:15:22;4.28;;;2.35;;
79562;SDS011;69026;50.980;11.314;2023-04-16T10:17:48;4.32;;;2.67;;
79562;SDS011;69026;50.980;11.314;2023-04-16T10:20:15;3.03;;;2.20;;
79562;SDS011;69026;50.980;11.314;2023-04-16T10:22:42;6.72;;;2.88;;
79562;SDS011;69026;50.980;11.314;2023-04-16T10:25:09;8.05;;;2.72;;
79562;SDS011;69026;50.980;11.314;2023-04-16T10:27:35;2.63;;;2.20;;
79562;SDS011;69026;50.980;11.314;2023-04-16T10:30:02;3.45;;;2.38;;
79562;SDS011;69026;50.980;11.314;2023-04-16T10:32:30;3.85;;;2.38;;
79562;SDS011;69026;50.980;11.314;2023-04-16T10:34:57;4.25;;;2.67;;
79562;SDS011;69026;50.980;11.314;2023-04-16T10:37:29;4.30;;;2.65;;
79562;SDS011;69026;50.980;11.314;2023-04-16T10:39:58;2.90;;;2.17;;
79562;SDS011;69026;50.980;11.314;2023-04-16T10:42:24;6.05;;;2.30;;
79562;SDS011;69026;50.980;11.314;2023-04-16T10:44:51;3.13;;;2.17;;
79562;SDS011;69026;50.980;11.314;2023-04-16T10:47:17;4.18;;;2.50;;
79562;SDS011;69026;50.980;11.314;2023-04-16T10:49:43;4.75;;;2.95;;
79562;SDS011;69026;50.980;11.314;2023-04-16T10:52:14;4.82;;;2.83;;
79562;SDS011;69026;50.980;11.314;2023-04-16T10:54:45;4.03;;;2.60;;
79562;SDS011;69026;50.980;11.314;2023-04-16T10:57:15;5.90;;;2.90;;
79562;SDS011;69026;50.980;11.314;2023-04-16T10:59:42;5.60;;;2.60;;
79562;SDS011;69026;50.980;11.314;2023-04-16T11:02:12;7.60;;;3.15;;
79562;SDS011;69026;50.980;11.314;2023-04-16T11:04:43;5.82;;;2.88;;
79562;SDS011;69026;50.980;11.314;2023-04-16T11:09:46;5.47;;;2.95;;
79562;SDS011;69026;50.980;11.314;2023-04-16T11:15:04;4.57;;;2.53;;
79562;SDS011;69026;50.980;11.314;2023-04-16T11:17:43;4.53;;;2.78;;
79562;SDS011;69026;50.980;11.314;2023-04-16T11:20:15;8.48;;;3.10;;
79562;SDS011;69026;50.980;11.314;2023-04-16T11:22:41;4.47;;;3.10;;
79562;SDS011;69026;50.980;11.314;2023-04-16T11:25:09;5.18;;;3.15;;
79562;SDS011;69026;50.980;11.314;2023-04-16T11:27:35;8.68;;;3.58;;
79562;SDS011;69026;50.980;11.314;2023-04-16T11:30:02;6.35;;;3.22;;
79562;SDS011;69026;50.980;11.314;2023-04-16T11:32:31;6.43;;;2.83;;
79562;SDS011;69026;50.980;11.314;2023-04-16T11:34:58;8.40;;;3.65;;
79562;SDS011;69026;50.980;11.314;2023-04-16T11:37:31;5.05;;;2.63;;
79562;SDS011;69026;50.980;11.314;2023-04-16T11:40:00;6.13;;;2.92;;
79562;SDS011;69026;50.980;11.314;2023-04-16T11:42:26;5.82;;;3.28;;
79562;SDS011;69026;50.980;11.314;2023-04-16T11:44:53;7.25;;;3.30;;
79562;SDS011;69026;50.980;11.314;2023-04-16T11:47:20;8.60;;;4.07;;
79562;SDS011;69026;50.980;11.314;2023-04-16T11:49:47;6.30;;;3.38;;
79562;SDS011;69026;50.980;11.314;2023-04-16T11:52:13;12.27;;;4.03;;
79562;SDS011;69026;50.980;11.314;2023-04-16T11:54:50;12.65;;;4.18;;
79562;SDS011;69026;50.980;11.314;2023-04-16T11:57:22;10.52;;;3.72;;
79562;SDS011;69026;50.980;11.314;2023-04-16T11:59:52;7.65;;;3.70;;
79562;SDS011;69026;50.980;11.314;2023-04-16T12:02:32;8.88;;;3.15;;
79562;SDS011;69026;50.980;11.314;2023-04-16T12:05:00;9.95;;;3.70;;
79562;SDS011;69026;50.980;11.314;2023-04-16T12:07:26;7.38;;;3.97;;
79562;SDS011;69026;50.980;11.314;2023-04-16T12:10:02;7.30;;;3.25;;
79562;SDS011;69026;50.980;11.314;2023-04-16T12:12:30;12.40;;;4.68;;
79562;SDS011;69026;50.980;11.314;2023-04-16T12:14:57;6.40;;;3.75;;
79562;SDS011;69026;50.980;11.314;2023-04-16T12:17:28;7.97;;;3.10;;
79562;SDS011;69026;50.980;11.314;2023-04-16T12:19:56;6.35;;;3.13;;
79562;SDS011;69026;50.980;11.314;2023-04-16T12:22:27;7.57;;;2.90;;
79562;SDS011;69026;50.980;11.314;2023-04-16T12:25:06;6.43;;;2.83;;
79562;SDS011;69026;50.980;11.314;2023-04-16T12:27:45;5.93;;;3.30;;
79562;SDS011;69026;50.980;11.314;2023-04-16T12:30:13;7.07;;;3.50;;
79562;SDS011;69026;50.980;11.314;2023-04-16T12:32:41;5.57;;;3.33;;
79562;SDS011;69026;50.980;11.314;2023-04-16T12:35:09;7.82;;;3.70;;
79562;SDS011;69026;50.980;11.314;2023-04-16T12:37:36;6.85;;;3.58;;
79562;SDS011;69026;50.980;11.314;2023-04-16T12:40:02;5.82;;;4.30;;
79562;SDS011;69026;50.980;11.314;2023-04-16T12:42:32;6.47;;;3.65;;
79562;SDS011;69026;50.980;11.314;2023-04-16T12:45:02;7.97;;;3.35;;
79562;SDS011;69026;50.980;11.314;2023-04-16T12:47:28;4.65;;;3.40;;
79562;SDS011;69026;50.980;11.314;2023-04-16T12:49:55;6.80;;;3.33;;
79562;SDS011;69026;50.980;11.314;2023-04-16T12:52:23;8.85;;;3.65;;
79562;SDS011;69026;50.980;11.314;2023-04-16T12:54:49;6.30;;;3.03;;
79562;SDS011;69026;50.980;11.314;2023-04-16T12:57:15;5.65;;;3.03;;
79562;SDS011;69026;50.980;11.314;2023-04-16T12:59:41;5.50;;;3.25;;
79562;SDS011;69026;50.980;11.314;2023-04-16T13:02:07;5.75;;;3.53;;
79562;SDS011;69026;50.980;11.314;2023-04-16T13:04:33;5.60;;;3.25;;
79562;SDS011;69026;50.980;11.314;2023-04-16T13:07:01;6.80;;;4.15;;
79562;SDS011;69026;50.980;11.314;2023-04-16T13:09:27;7.00;;;2.85;;
79562;SDS011;69026;50.980;11.314;2023-04-16T13:11:53;7.70;;;4.00;;
79562;SDS011;69026;50.980;11.314;2023-04-16T13:14:19;8.60;;;4.32;;
79562;SDS011;69026;50.980;11.314;2023-04-16T13:16:45;6.80;;;3.78;;
79562;SDS011;69026;50.980;11.314;2023-04-16T13:19:11;4.70;;;3.60;;
79562;SDS011;69026;50.980;11.314;2023-04-16T13:21:37;7.03;;;3.35;;
79562;SDS011;69026;50.980;11.314;2023-04-16T13:24:03;6.70;;;2.53;;
79562;SDS011;69026;50.980;11.314;2023-04-16T13:26:29;4.88;;;2.70;;
79562;SDS011;69026;50.980;11.314;2023-04-16T13:28:55;3.97;;;2.30;;
79562;SDS011;69026;50.980;11.314;2023-04-16T13:31:20;6.70;;;2.88;;
79562;SDS011;69026;50.980;11.314;2023-04-16T13:33:47;5.28;;;2.65;;
79562;SDS011;69026;50.980;11.314;2023-04-16T13:36:13;6.35;;;3.00;;
79562;SDS011;69026;50.980;11.314;2023-04-16T13:38:39;6.65;;;2.78;;
79562;SDS011;69026;50.980;11.314;2023-04-16T13:41:07;5.03;;;2.42;;
79562;SDS011;69026;50.980;11.314;2023-04-16T13:43:33;4.20;;;2.50;;
79562;SDS011;69026;50.980;11.314;2023-04-16T13:45:59;6.00;;;2.53;;
79562;SDS011;69026;50.980;11.314;2023-04-16T13:48:25;6.22;;;2.80;;
79562;SDS011;69026;50.980;11.314;2023-04-16T13:50:52;5.40;;;2.03;;
79562;SDS011;69026;50.980;11.314;2023-04-16T13:53:18;5.60;;;2.38;;
79562;SDS011;69026;50.980;11.314;2023-04-16T13:55:44;3.40;;;2.15;;
79562;SDS011;69026;50.980;11.314;2023-04-16T13:58:10;4.10;;;2.05;;
79562;SDS011;69026;50.980;11.314;2023-04-16T14:00:36;4.35;;;2.40;;
79562;SDS011;69026;50.980;11.314;2023-04-16T14:03:02;5.60;;;2.40;;
79562;SDS011;69026;50.980;11.314;2023-04-16T14:05:30;5.65;;;2.28;;
79562;SDS011;69026;50.980;11.314;2023-04-16T14:07:56;10.70;;;2.63;;
79562;SDS011;69026;50.980;11.314;2023-04-16T14:10:21;5.13;;;2.53;;
79562;SDS011;69026;50.980;11.314;2023-04-16T14:12:47;7.53;;;3.83;;
79562;SDS011;69026;50.980;11.314;2023-04-16T14:15:13;6.70;;;2.50;;
79562;SDS011;69026;50.980;11.314;2023-04-16T14:17:42;5.97;;;2.63;;
79562;SDS011;69026;50.980;11.314;2023-04-16T14:20:09;6.18;;;3.03;;
79562;SDS011;69026;50.980;11.314;2023-04-16T14:22:37;10.27;;;3.53;;
79562;SDS011;69026;50.980;11.314;2023-04-16T14:25:04;8.13;;;3.47;;
79562;SDS011;69026;50.980;11.314;2023-04-16T14:27:30;8.63;;;3.95;;
79562;SDS011;69026;50.980;11.314;2023-04-16T14:29:57;7.72;;;3.35;;
79562;SDS011;69026;50.980;11.314;2023-04-16T14:32:23;9.00;;;3.38;;
79562;SDS011;69026;50.980;11.314;2023-04-16T14:34:49;11.52;;;3.72;;
79562;SDS011;69026;50.980;11.314;2023-04-16T14:37:16;7.72;;;3.40;;
79562;SDS011;69026;50.980;11.314;2023-04-16T14:39:42;9.55;;;3.35;;
79562;SDS011;69026;50.980;11.314;2023-04-16T14:42:08;10.80;;;4.57;;
79562;SDS011;69026;50.980;11.314;2023-04-16T14:44:35;9.02;;;4.03;;